sensor_id;sensor_type;location;lat;lon;timestamp;P1;durP1;ratioP1;P2;durP2;ratioP2
64641;SDS011;59936;51.490;5.436;2023-08-07T00:00:15;8.00;;;2.80;;
64641;SDS011;59936;51.490;5.436;2023-08-07T00:05:22;6.60;;;2.70;;
64641;SDS011;59936;51.490;5.436;2023-08-07T00:07:51;6.00;;;2.70;;
64641;SDS011;59936;51.490;5.436;2023-08-07T00:10:20;12.70;;;3.20;;
64641;SDS011;59936;51.490;5.436;2023-08-07T00:12:49;18.20;;;2.90;;
64641;SDS011;59936;51.490;5.436;2023-08-07T00:15:17;9.70;;;2.80;;
64641;SDS011;59936;51.490;5.436;2023-08-07T00:17:46;9.60;;;2.50;;
64641;SDS011;59936;51.490;5.436;2023-08-07T00:20:14;14.70;;;3.00;;
64641;SDS011;59936;51.490;5.436;2023-08-07T00:22:43;6.50;;;2.70;;
64641;SDS011;59936;51.490;5.436;2023-08-07T00:25:11;14.40;;;3.20;;
64641;SDS011;59936;51.490;5.436;2023-08-07T00:27:40;10.20;;;3.00;;
64641;SDS011;59936;51.490;5.436;2023-08-07T00:30:09;9.50;;;3.30;;
64641;SDS011;59936;51.490;5.436;2023-08-07T00:32:38;8.90;;;2.90;;
64641;SDS011;59936;51.490;5.436;2023-08-07T00:35:07;6.20;;;2.60;;
64641;SDS011;59936;51.490;5.436;2023-08-07T00:37:36;7.80;;;2.70;;
64641;SDS011;59936;51.490;5.436;2023-08-07T00:40:05;10.00;;;3.00;;
64641;SDS011;59936;51.490;5.436;2023-08-07T00:42:34;6.80;;;2.90;;
64641;SDS011;59936;51.490;5.436;2023-08-07T00:45:04;11.80;;;3.30;;
64641;SDS011;59936;51.490;5.436;2023-08-07T00:47:34;9.20;;;3.50;;
64641;SDS011;59936;51.490;5.436;2023-08-07T00:50:04;5.90;;;3.00;;
64641;SDS011;59936;51.490;5.436;2023-08-07T00:52:33;6.70;;;3.20;;
64641;SDS011;59936;51.490;5.436;2023-08-07T00:55:02;7.30;;;2.20;;
64641;SDS011;59936;51.490;5.436;2023-08-07T00:57:31;7.70;;;2.40;;
64641;SDS011;59936;51.490;5.436;2023-08-07T01:00:00;6.10;;;2.50;;
64641;SDS011;59936;51.490;5.436;2023-08-07T01:02:30;7.00;;;2.40;;
64641;SDS011;59936;51.490;5.436;2023-08-07T01:04:59;8.80;;;2.50;;
64641;SDS011;59936;51.490;5.436;2023-08-07T01:07:28;5.70;;;3.20;;
64641;SDS011;59936;51.490;5.436;2023-08-07T01:09:56;8.30;;;3.30;;
64641;SDS011;59936;51.490;5.436;2023-08-07T01:12:36;11.70;;;2.90;;
64641;SDS011;59936;51.490;5.436;2023-08-07T01:15:25;9.50;;;3.30;;
64641;SDS011;59936;51.490;5.436;2023-08-07T01:18:01;7.40;;;3.50;;
64641;SDS011;59936;51.490;5.436;2023-08-07T01:20:31;7.70;;;3.10;;
64641;SDS011;59936;51.490;5.436;2023-08-07T01:23:00;8.20;;;2.90;;
64641;SDS011;59936;51.490;5.436;2023-08-07T01:25:28;9.10;;;2.90;;
64641;SDS011;59936;51.490;5.436;2023-08-07T01:28:02;7.00;;;2.90;;
64641;SDS011;59936;51.490;5.436;2023-08-07T01:30:46;11.40;;;3.10;;
64641;SDS011;59936;51.490;5.436;2023-08-07T01:33:24;10.30;;;3.40;;
64641;SDS011;59936;51.490;5.436;2023-08-07T01:36:04;8.70;;;3.00;;
64641;SDS011;59936;51.490;5.436;2023-08-07T01:38:35;10.40;;;3.30;;
64641;SDS011;59936;51.490;5.436;2023-08-07T01:41:06;11.30;;;2.70;;
64641;SDS011;59936;51.490;5.436;2023-08-07T01:43:34;9.40;;;2.90;;
64641;SDS011;59936;51.490;5.436;2023-08-07T01:46:03;7.40;;;2.10;;
64641;SDS011;59936;51.490;5.436;2023-08-07T01:48:32;5.80;;;2.70;;
64641;SDS011;59936;51.490;5.436;2023-08-07T01:51:00;21.30;;;2.30;;
64641;SDS011;59936;51.490;5.436;2023-08-07T01:53:29;9.30;;;2.60;;
64641;SDS011;59936;51.490;5.436;2023-08-07T01:55:57;12.70;;;2.60;;
64641;SDS011;59936;51.490;5.436;2023-08-07T01:58:26;6.20;;;2.70;;
64641;SDS011;59936;51.490;5.436;2023-08-07T02:00:55;13.30;;;3.20;;
64641;SDS011;59936;51.490;5.436;2023-08-07T02:03:23;4.70;;;3.00;;
64641;SDS011;59936;51.490;5.436;2023-08-07T02:05:52;2.90;;;1.80;;
64641;SDS011;59936;51.490;5.436;2023-08-07T02:08:20;6.90;;;2.90;;
64641;SDS011;59936;51.490;5.436;2023-08-07T02:10:49;8.50;;;3.00;;
64641;SDS011;59936;51.490;5.436;2023-08-07T02:13:18;6.20;;;2.40;;
64641;SDS011;59936;51.490;5.436;2023-08-07T02:15:46;8.90;;;2.70;;
64641;SDS011;59936;51.490;5.436;2023-08-07T02:18:15;9.60;;;3.10;;
64641;SDS011;59936;51.490;5.436;2023-08-07T02:20:43;2.90;;;1.80;;
64641;SDS011;59936;51.490;5.436;2023-08-07T02:23:12;7.50;;;2.80;;
64641;SDS011;59936;51.490;5.436;2023-08-07T02:25:40;9.60;;;3.00;;
64641;SDS011;59936;51.490;5.436;2023-08-07T02:28:09;8.20;;;2.80;;
64641;SDS011;59936;51.490;5.436;2023-08-07T02:30:37;6.50;;;2.70;;
64641;SDS011;59936;51.490;5.436;2023-08-07T02:33:06;6.50;;;3.00;;
64641;SDS011;59936;51.490;5.436;2023-08-07T02:35:35;9.10;;;2.90;;
64641;SDS011;59936;51.490;5.436;2023-08-07T02:38:03;10.30;;;3.10;;
64641;SDS011;59936;51.490;5.436;2023-08-07T02:40:32;6.90;;;3.10;;
64641;SDS011;59936;51.490;5.436;2023-08-07T02:43:00;13.20;;;3.40;;
64641;SDS011;59936;51.490;5.436;2023-08-07T02:45:29;6.50;;;2.90;;
64641;SDS011;59936;51.490;5.436;2023-08-07T02:47:57;8.60;;;3.60;;
64641;SDS011;59936;51.490;5.436;2023-08-07T02:50:26;9.80;;;3.10;;
64641;SDS011;59936;51.490;5.436;2023-08-07T02:52:55;7.40;;;2.00;;
64641;SDS011;59936;51.490;5.436;2023-08-07T02:55:23;9.50;;;3.10;;
64641;SDS011;59936;51.490;5.436;2023-08-07T02:57:52;9.30;;;2.90;;
64641;SDS011;59936;51.490;5.436;2023-08-07T03:00:20;14.00;;;2.80;;
64641;SDS011;59936;51.490;5.436;2023-08-07T03:02:49;12.60;;;3.60;;
64641;SDS011;59936;51.490;5.436;2023-08-07T03:05:17;13.00;;;3.10;;
64641;SDS011;59936;51.490;5.436;2023-08-07T03:07:46;10.00;;;3.50;;
64641;SDS011;59936;51.490;5.436;2023-08-07T03:10:15;10.50;;;2.60;;
64641;SDS011;59936;51.490;5.436;2023-08-07T03:12:43;10.10;;;2.90;;
64641;SDS011;59936;51.490;5.436;2023-08-07T03:15:12;11.80;;;2.80;;
64641;SDS011;59936;51.490;5.436;2023-08-07T03:17:40;8.20;;;3.10;;
64641;SDS011;59936;51.490;5.436;2023-08-07T03:20:09;8.20;;;2.80;;
64641;SDS011;59936;51.490;5.436;2023-08-07T03:22:38;8.10;;;3.20;;
64641;SDS011;59936;51.490;5.436;2023-08-07T03:25:07;9.10;;;3.00;;
64641;SDS011;59936;51.490;5.436;2023-08-07T03:27:36;15.20;;;3.50;;
64641;SDS011;59936;51.490;5.436;2023-08-07T03:30:05;8.80;;;2.70;;
64641;SDS011;59936;51.490;5.436;2023-08-07T03:32:34;9.70;;;3.10;;
64641;SDS011;59936;51.490;5.436;2023-08-07T03:35:03;9.30;;;3.30;;
64641;SDS011;59936;51.490;5.436;2023-08-07T03:37:32;9.10;;;3.30;;
64641;SDS011;59936;51.490;5.436;2023-08-07T03:40:00;13.80;;;3.90;;
64641;SDS011;59936;51.490;5.436;2023-08-07T03:42:29;9.40;;;3.50;;
64641;SDS011;59936;51.490;5.436;2023-08-07T03:44:57;11.60;;;3.30;;
64641;SDS011;59936;51.490;5.436;2023-08-07T03:47:26;11.80;;;3.80;;
64641;SDS011;59936;51.490;5.436;2023-08-07T03:49:54;8.60;;;3.20;;
64641;SDS011;59936;51.490;5.436;2023-08-07T03:52:23;14.80;;;3.40;;
64641;SDS011;59936;51.490;5.436;2023-08-07T03:54:52;10.30;;;3.10;;
64641;SDS011;59936;51.490;5.436;2023-08-07T03:57:20;8.90;;;3.20;;
64641;SDS011;59936;51.490;5.436;2023-08-07T03:59:49;9.30;;;3.40;;
64641;SDS011;59936;51.490;5.436;2023-08-07T04:02:17;11.80;;;3.30;;
64641;SDS011;59936;51.490;5.436;2023-08-07T04:04:46;8.30;;;3.70;;
64641;SDS011;59936;51.490;5.436;2023-08-07T04:07:15;5.00;;;2.80;;
64641;SDS011;59936;51.490;5.436;2023-08-07T04:09:43;5.90;;;3.40;;
64641;SDS011;59936;51.490;5.436;2023-08-07T04:12:12;11.50;;;3.60;;
64641;SDS011;59936;51.490;5.436;2023-08-07T04:14:40;6.10;;;2.50;;
64641;SDS011;59936;51.490;5.436;2023-08-07T04:17:09;8.00;;;3.20;;
64641;SDS011;59936;51.490;5.436;2023-08-07T04:19:37;8.10;;;3.00;;
64641;SDS011;59936;51.490;5.436;2023-08-07T04:22:06;7.40;;;2.90;;
64641;SDS011;59936;51.490;5.436;2023-08-07T04:24:35;8.90;;;3.50;;
64641;SDS011;59936;51.490;5.436;2023-08-07T04:27:03;9.00;;;3.40;;
64641;SDS011;59936;51.490;5.436;2023-08-07T04:29:32;9.00;;;4.00;;
64641;SDS011;59936;51.490;5.436;2023-08-07T04:32:01;2.60;;;1.80;;
64641;SDS011;59936;51.490;5.436;2023-08-07T04:34:29;11.70;;;3.00;;
64641;SDS011;59936;51.490;5.436;2023-08-07T04:36:58;14.40;;;3.30;;
64641;SDS011;59936;51.490;5.436;2023-08-07T04:39:26;10.50;;;3.50;;
64641;SDS011;59936;51.490;5.436;2023-08-07T04:41:55;6.20;;;2.70;;
64641;SDS011;59936;51.490;5.436;2023-08-07T04:44:24;2.80;;;2.40;;
64641;SDS011;59936;51.490;5.436;2023-08-07T04:46:52;8.40;;;2.90;;
64641;SDS011;59936;51.490;5.436;2023-08-07T04:49:21;7.50;;;3.40;;
64641;SDS011;59936;51.490;5.436;2023-08-07T04:51:49;6.70;;;3.00;;
64641;SDS011;59936;51.490;5.436;2023-08-07T04:54:18;17.40;;;3.40;;
64641;SDS011;59936;51.490;5.436;2023-08-07T04:56:46;10.10;;;3.00;;
64641;SDS011;59936;51.490;5.436;2023-08-07T04:59:15;12.60;;;3.40;;
64641;SDS011;59936;51.490;5.436;2023-08-07T05:01:44;8.00;;;3.00;;
64641;SDS011;59936;51.490;5.436;2023-08-07T05:04:12;8.80;;;2.90;;
64641;SDS011;59936;51.490;5.436;2023-08-07T05:06:41;10.40;;;2.60;;
64641;SDS011;59936;51.490;5.436;2023-08-07T05:09:09;7.10;;;2.70;;
64641;SDS011;59936;51.490;5.436;2023-08-07T05:11:38;10.40;;;2.30;;
64641;SDS011;59936;51.490;5.436;2023-08-07T05:14:06;6.20;;;2.30;;
64641;SDS011;59936;51.490;5.436;2023-08-07T05:16:35;6.00;;;2.70;;
64641;SDS011;59936;51.490;5.436;2023-08-07T05:19:04;3.90;;;2.40;;
64641;SDS011;59936;51.490;5.436;2023-08-07T05:21:32;6.60;;;2.40;;
64641;SDS011;59936;51.490;5.436;2023-08-07T05:24:01;7.30;;;2.30;;
64641;SDS011;59936;51.490;5.436;2023-08-07T05:26:29;4.30;;;2.40;;
64641;SDS011;59936;51.490;5.436;2023-08-07T05:28:58;8.80;;;3.00;;
64641;SDS011;59936;51.490;5.436;2023-08-07T05:31:27;4.00;;;2.40;;
64641;SDS011;59936;51.490;5.436;2023-08-07T05:33:55;4.40;;;2.60;;
64641;SDS011;59936;51.490;5.436;2023-08-07T05:36:24;8.00;;;2.60;;
64641;SDS011;59936;51.490;5.436;2023-08-07T05:38:53;7.00;;;2.20;;
64641;SDS011;59936;51.490;5.436;2023-08-07T05:41:21;11.60;;;2.90;;
64641;SDS011;59936;51.490;5.436;2023-08-07T05:43:50;6.20;;;2.00;;
64641;SDS011;59936;51.490;5.436;2023-08-07T05:46:18;3.90;;;1.70;;
64641;SDS011;59936;51.490;5.436;2023-08-07T05:48:47;10.10;;;2.80;;
64641;SDS011;59936;51.490;5.436;2023-08-07T05:51:15;10.30;;;2.50;;
64641;SDS011;59936;51.490;5.436;2023-08-07T05:53:44;10.40;;;2.60;;
64641;SDS011;59936;51.490;5.436;2023-08-07T05:56:13;9.10;;;3.10;;
64641;SDS011;59936;51.490;5.436;2023-08-07T05:58:41;3.20;;;1.80;;
64641;SDS011;59936;51.490;5.436;2023-08-07T06:01:10;12.70;;;3.30;;
64641;SDS011;59936;51.490;5.436;2023-08-07T06:03:38;6.80;;;2.60;;
64641;SDS011;59936;51.490;5.436;2023-08-07T06:06:07;15.50;;;3.50;;
64641;SDS011;59936;51.490;5.436;2023-08-07T06:08:35;12.90;;;3.20;;
64641;SDS011;59936;51.490;5.436;2023-08-07T06:11:04;14.80;;;2.90;;
64641;SDS011;59936;51.490;5.436;2023-08-07T06:13:33;13.20;;;3.30;;
64641;SDS011;59936;51.490;5.436;2023-08-07T06:16:02;13.10;;;2.60;;
64641;SDS011;59936;51.490;5.436;2023-08-07T06:18:30;8.20;;;2.90;;
64641;SDS011;59936;51.490;5.436;2023-08-07T06:20:59;12.10;;;2.30;;
64641;SDS011;59936;51.490;5.436;2023-08-07T06:23:28;7.90;;;2.60;;
64641;SDS011;59936;51.490;5.436;2023-08-07T06:25:57;7.10;;;2.50;;
64641;SDS011;59936;51.490;5.436;2023-08-07T06:28:25;10.20;;;2.40;;
64641;SDS011;59936;51.490;5.436;2023-08-07T06:30:59;4.30;;;2.10;;
64641;SDS011;59936;51.490;5.436;2023-08-07T06:33:32;12.20;;;2.70;;
64641;SDS011;59936;51.490;5.436;2023-08-07T06:36:02;6.50;;;2.00;;
64641;SDS011;59936;51.490;5.436;2023-08-07T06:38:32;9.40;;;2.50;;
64641;SDS011;59936;51.490;5.436;2023-08-07T06:41:00;7.40;;;2.30;;
64641;SDS011;59936;51.490;5.436;2023-08-07T06:43:29;8.60;;;1.80;;
64641;SDS011;59936;51.490;5.436;2023-08-07T06:45:58;6.00;;;1.90;;
64641;SDS011;59936;51.490;5.436;2023-08-07T06:48:27;2.95;;;2.15;;
64641;SDS011;59936;51.490;5.436;2023-08-07T06:50:55;8.90;;;2.20;;
64641;SDS011;59936;51.490;5.436;2023-08-07T06:53:24;11.10;;;2.60;;
64641;SDS011;59936;51.490;5.436;2023-08-07T06:55:53;5.20;;;1.70;;
64641;SDS011;59936;51.490;5.436;2023-08-07T06:58:21;9.60;;;2.20;;
64641;SDS011;59936;51.490;5.436;2023-08-07T07:00:50;5.40;;;2.20;;
64641;SDS011;59936;51.490;5.436;2023-08-07T07:03:18;4.70;;;2.10;;
64641;SDS011;59936;51.490;5.436;2023-08-07T07:05:48;9.60;;;2.50;;
64641;SDS011;59936;51.490;5.436;2023-08-07T07:08:17;7.30;;;2.20;;
64641;SDS011;59936;51.490;5.436;2023-08-07T07:10:46;10.90;;;2.40;;
64641;SDS011;59936;51.490;5.436;2023-08-07T07:13:15;5.30;;;1.90;;
64641;SDS011;59936;51.490;5.436;2023-08-07T07:15:44;7.70;;;2.10;;
64641;SDS011;59936;51.490;5.436;2023-08-07T07:18:12;5.90;;;1.80;;
64641;SDS011;59936;51.490;5.436;2023-08-07T07:20:41;3.70;;;1.60;;
64641;SDS011;59936;51.490;5.436;2023-08-07T07:23:10;7.30;;;1.90;;
64641;SDS011;59936;51.490;5.436;2023-08-07T07:25:38;5.50;;;2.30;;
64641;SDS011;59936;51.490;5.436;2023-08-07T07:28:07;10.70;;;2.50;;
64641;SDS011;59936;51.490;5.436;2023-08-07T07:30:35;5.90;;;2.00;;
64641;SDS011;59936;51.490;5.436;2023-08-07T07:33:07;9.70;;;3.30;;
64641;SDS011;59936;51.490;5.436;2023-08-07T07:35:38;10.40;;;2.30;;
64641;SDS011;59936;51.490;5.436;2023-08-07T07:38:07;6.40;;;2.40;;
64641;SDS011;59936;51.490;5.436;2023-08-07T07:40:36;6.30;;;2.20;;
64641;SDS011;59936;51.490;5.436;2023-08-07T07:43:05;12.80;;;2.50;;
64641;SDS011;59936;51.490;5.436;2023-08-07T07:45:34;8.70;;;1.70;;
64641;SDS011;59936;51.490;5.436;2023-08-07T07:48:03;7.40;;;2.10;;
64641;SDS011;59936;51.490;5.436;2023-08-07T07:50:32;6.50;;;1.70;;
64641;SDS011;59936;51.490;5.436;2023-08-07T07:53:00;3.40;;;1.90;;
64641;SDS011;59936;51.490;5.436;2023-08-07T07:55:29;8.30;;;2.10;;
64641;SDS011;59936;51.490;5.436;2023-08-07T07:57:58;5.30;;;2.20;;
64641;SDS011;59936;51.490;5.436;2023-08-07T08:00:26;6.20;;;1.80;;
64641;SDS011;59936;51.490;5.436;2023-08-07T08:02:55;6.00;;;1.80;;
64641;SDS011;59936;51.490;5.436;2023-08-07T08:05:23;3.60;;;1.30;;
64641;SDS011;59936;51.490;5.436;2023-08-07T08:07:52;6.90;;;2.40;;
64641;SDS011;59936;51.490;5.436;2023-08-07T08:10:20;8.00;;;2.20;;
64641;SDS011;59936;51.490;5.436;2023-08-07T08:12:49;6.30;;;2.10;;
64641;SDS011;59936;51.490;5.436;2023-08-07T08:15:18;14.75;;;2.40;;
64641;SDS011;59936;51.490;5.436;2023-08-07T08:17:46;6.60;;;2.10;;
64641;SDS011;59936;51.490;5.436;2023-08-07T08:20:16;4.70;;;2.10;;
64641;SDS011;59936;51.490;5.436;2023-08-07T08:22:45;6.20;;;2.20;;
64641;SDS011;59936;51.490;5.436;2023-08-07T08:25:14;6.50;;;2.30;;
64641;SDS011;59936;51.490;5.436;2023-08-07T08:27:43;9.80;;;2.30;;
64641;SDS011;59936;51.490;5.436;2023-08-07T08:30:11;6.20;;;2.10;;
64641;SDS011;59936;51.490;5.436;2023-08-07T08:32:40;6.20;;;1.80;;
64641;SDS011;59936;51.490;5.436;2023-08-07T08:35:09;6.30;;;2.40;;
64641;SDS011;59936;51.490;5.436;2023-08-07T08:37:37;4.40;;;1.60;;
64641;SDS011;59936;51.490;5.436;2023-08-07T08:40:06;4.70;;;1.90;;
64641;SDS011;59936;51.490;5.436;2023-08-07T08:42:36;6.10;;;1.80;;
64641;SDS011;59936;51.490;5.436;2023-08-07T08:45:09;3.20;;;1.60;;
64641;SDS011;59936;51.490;5.436;2023-08-07T08:47:43;4.80;;;1.40;;
64641;SDS011;59936;51.490;5.436;2023-08-07T08:50:13;7.60;;;2.10;;
64641;SDS011;59936;51.490;5.436;2023-08-07T08:52:43;5.30;;;2.00;;
64641;SDS011;59936;51.490;5.436;2023-08-07T08:55:13;12.80;;;2.15;;
64641;SDS011;59936;51.490;5.436;2023-08-07T08:57:41;8.75;;;2.40;;
64641;SDS011;59936;51.490;5.436;2023-08-07T09:00:10;1.50;;;1.20;;
64641;SDS011;59936;51.490;5.436;2023-08-07T09:02:45;4.40;;;2.00;;
64641;SDS011;59936;51.490;5.436;2023-08-07T09:05:16;4.90;;;1.80;;
64641;SDS011;59936;51.490;5.436;2023-08-07T09:07:48;1.50;;;1.40;;
64641;SDS011;59936;51.490;5.436;2023-08-07T09:10:17;4.05;;;1.75;;
64641;SDS011;59936;51.490;5.436;2023-08-07T09:12:53;3.70;;;1.50;;
64641;SDS011;59936;51.490;5.436;2023-08-07T09:15:28;4.90;;;1.70;;
64641;SDS011;59936;51.490;5.436;2023-08-07T09:18:03;3.70;;;1.60;;
64641;SDS011;59936;51.490;5.436;2023-08-07T09:20:35;5.40;;;1.90;;
64641;SDS011;59936;51.490;5.436;2023-08-07T09:23:05;5.50;;;1.90;;
64641;SDS011;59936;51.490;5.436;2023-08-07T09:25:34;1.80;;;1.40;;
64641;SDS011;59936;51.490;5.436;2023-08-07T09:28:04;5.20;;;1.80;;
64641;SDS011;59936;51.490;5.436;2023-08-07T09:30:34;3.80;;;1.90;;
64641;SDS011;59936;51.490;5.436;2023-08-07T09:33:04;5.70;;;2.00;;
64641;SDS011;59936;51.490;5.436;2023-08-07T09:35:33;4.60;;;1.90;;
64641;SDS011;59936;51.490;5.436;2023-08-07T09:38:01;6.70;;;2.00;;
64641;SDS011;59936;51.490;5.436;2023-08-07T09:40:30;3.50;;;1.80;;
64641;SDS011;59936;51.490;5.436;2023-08-07T09:43:01;4.00;;;2.00;;
64641;SDS011;59936;51.490;5.436;2023-08-07T09:45:30;3.10;;;2.00;;
64641;SDS011;59936;51.490;5.436;2023-08-07T09:48:02;4.80;;;1.80;;
64641;SDS011;59936;51.490;5.436;2023-08-07T09:50:32;1.60;;;1.50;;
64641;SDS011;59936;51.490;5.436;2023-08-07T09:53:01;6.50;;;1.60;;
64641;SDS011;59936;51.490;5.436;2023-08-07T09:55:30;3.65;;;2.10;;
64641;SDS011;59936;51.490;5.436;2023-08-07T09:58:00;6.70;;;2.40;;
64641;SDS011;59936;51.490;5.436;2023-08-07T10:00:33;6.80;;;1.90;;
64641;SDS011;59936;51.490;5.436;2023-08-07T10:03:03;5.40;;;1.80;;
64641;SDS011;59936;51.490;5.436;2023-08-07T10:05:34;2.30;;;1.90;;
64641;SDS011;59936;51.490;5.436;2023-08-07T10:08:03;2.95;;;1.60;;
64641;SDS011;59936;51.490;5.436;2023-08-07T10:10:32;5.25;;;1.95;;
64641;SDS011;59936;51.490;5.436;2023-08-07T10:13:01;2.60;;;1.60;;
64641;SDS011;59936;51.490;5.436;2023-08-07T10:15:31;6.40;;;2.00;;
64641;SDS011;59936;51.490;5.436;2023-08-07T10:18:01;4.10;;;2.00;;
64641;SDS011;59936;51.490;5.436;2023-08-07T10:20:30;1.20;;;1.20;;
64641;SDS011;59936;51.490;5.436;2023-08-07T10:23:00;4.40;;;2.10;;
64641;SDS011;59936;51.490;5.436;2023-08-07T10:25:37;5.20;;;2.30;;
64641;SDS011;59936;51.490;5.436;2023-08-07T10:28:10;3.50;;;2.20;;
64641;SDS011;59936;51.490;5.436;2023-08-07T10:30:44;2.50;;;1.70;;
64641;SDS011;59936;51.490;5.436;2023-08-07T10:33:14;5.90;;;2.00;;
64641;SDS011;59936;51.490;5.436;2023-08-07T10:35:45;3.70;;;2.00;;
64641;SDS011;59936;51.490;5.436;2023-08-07T10:38:18;5.70;;;1.85;;
64641;SDS011;59936;51.490;5.436;2023-08-07T10:40:59;1.80;;;1.70;;
64641;SDS011;59936;51.490;5.436;2023-08-07T10:43:30;4.05;;;1.75;;
64641;SDS011;59936;51.490;5.436;2023-08-07T10:46:02;4.05;;;2.00;;
64641;SDS011;59936;51.490;5.436;2023-08-07T10:48:37;4.30;;;1.80;;
64641;SDS011;59936;51.490;5.436;2023-08-07T10:51:19;3.10;;;1.90;;
64641;SDS011;59936;51.490;5.436;2023-08-07T10:53:48;4.30;;;2.30;;
64641;SDS011;59936;51.490;5.436;2023-08-07T10:56:18;3.60;;;2.40;;
64641;SDS011;59936;51.490;5.436;2023-08-07T10:59:10;2.90;;;1.60;;
64641;SDS011;59936;51.490;5.436;2023-08-07T11:01:43;6.60;;;2.30;;
64641;SDS011;59936;51.490;5.436;2023-08-07T11:04:18;2.80;;;1.40;;
64641;SDS011;59936;51.490;5.436;2023-08-07T11:06:47;3.80;;;1.70;;
64641;SDS011;59936;51.490;5.436;2023-08-07T11:09:16;2.60;;;1.60;;
64641;SDS011;59936;51.490;5.436;2023-08-07T11:11:46;3.30;;;2.00;;
64641;SDS011;59936;51.490;5.436;2023-08-07T11:14:17;4.90;;;2.30;;
64641;SDS011;59936;51.490;5.436;2023-08-07T11:16:48;1.70;;;1.60;;
64641;SDS011;59936;51.490;5.436;2023-08-07T11:19:17;1.60;;;1.30;;
64641;SDS011;59936;51.490;5.436;2023-08-07T11:21:46;3.40;;;1.90;;
64641;SDS011;59936;51.490;5.436;2023-08-07T11:24:16;2.90;;;2.10;;
64641;SDS011;59936;51.490;5.436;2023-08-07T11:26:45;2.30;;;1.70;;
64641;SDS011;59936;51.490;5.436;2023-08-07T11:29:19;6.50;;;2.30;;
64641;SDS011;59936;51.490;5.436;2023-08-07T11:31:48;2.40;;;1.80;;
64641;SDS011;59936;51.490;5.436;2023-08-07T11:34:21;5.40;;;2.00;;
64641;SDS011;59936;51.490;5.436;2023-08-07T11:36:49;5.75;;;2.10;;
64641;SDS011;59936;51.490;5.436;2023-08-07T11:39:18;5.10;;;2.00;;
64641;SDS011;59936;51.490;5.436;2023-08-07T11:41:47;3.90;;;2.00;;
64641;SDS011;59936;51.490;5.436;2023-08-07T11:44:15;2.95;;;2.00;;
64641;SDS011;59936;51.490;5.436;2023-08-07T11:46:44;3.20;;;2.00;;
64641;SDS011;59936;51.490;5.436;2023-08-07T11:49:13;5.90;;;2.50;;
64641;SDS011;59936;51.490;5.436;2023-08-07T11:51:41;6.80;;;2.30;;
64641;SDS011;59936;51.490;5.436;2023-08-07T11:54:13;1.80;;;1.30;;
64641;SDS011;59936;51.490;5.436;2023-08-07T11:56:43;4.50;;;2.20;;
64641;SDS011;59936;51.490;5.436;2023-08-07T11:59:18;5.40;;;2.05;;
64641;SDS011;59936;51.490;5.436;2023-08-07T12:01:46;6.10;;;1.90;;
64641;SDS011;59936;51.490;5.436;2023-08-07T12:04:16;4.30;;;2.00;;
64641;SDS011;59936;51.490;5.436;2023-08-07T12:06:53;4.90;;;1.80;;
64641;SDS011;59936;51.490;5.436;2023-08-07T12:09:22;5.55;;;2.25;;
64641;SDS011;59936;51.490;5.436;2023-08-07T12:11:59;2.50;;;2.30;;
64641;SDS011;59936;51.490;5.436;2023-08-07T12:16:59;4.20;;;1.70;;
64641;SDS011;59936;51.490;5.436;2023-08-07T12:19:36;6.30;;;2.30;;
64641;SDS011;59936;51.490;5.436;2023-08-07T12:22:06;4.70;;;2.20;;
64641;SDS011;59936;51.490;5.436;2023-08-07T12:24:38;3.80;;;2.40;;
64641;SDS011;59936;51.490;5.436;2023-08-07T12:27:15;8.30;;;2.60;;
64641;SDS011;59936;51.490;5.436;2023-08-07T12:29:43;6.10;;;2.60;;
64641;SDS011;59936;51.490;5.436;2023-08-07T12:32:18;3.33;;;1.75;;
64641;SDS011;59936;51.490;5.436;2023-08-07T12:34:51;8.00;;;2.80;;
64641;SDS011;59936;51.490;5.436;2023-08-07T12:37:28;8.50;;;2.60;;
64641;SDS011;59936;51.490;5.436;2023-08-07T12:40:01;3.90;;;2.60;;
64641;SDS011;59936;51.490;5.436;2023-08-07T12:42:34;5.10;;;2.30;;
64641;SDS011;59936;51.490;5.436;2023-08-07T12:45:03;6.85;;;2.40;;
64641;SDS011;59936;51.490;5.436;2023-08-07T12:47:32;2.05;;;1.85;;
64641;SDS011;59936;51.490;5.436;2023-08-07T12:50:01;8.40;;;3.10;;
64641;SDS011;59936;51.490;5.436;2023-08-07T12:52:30;7.60;;;3.10;;
64641;SDS011;59936;51.490;5.436;2023-08-07T12:54:58;4.40;;;2.50;;
64641;SDS011;59936;51.490;5.436;2023-08-07T12:57:27;5.50;;;2.50;;
64641;SDS011;59936;51.490;5.436;2023-08-07T12:59:55;5.20;;;2.40;;
64641;SDS011;59936;51.490;5.436;2023-08-07T13:02:24;6.20;;;2.70;;
64641;SDS011;59936;51.490;5.436;2023-08-07T13:04:53;5.00;;;2.60;;
64641;SDS011;59936;51.490;5.436;2023-08-07T13:07:21;5.50;;;2.60;;
64641;SDS011;59936;51.490;5.436;2023-08-07T13:09:50;5.10;;;3.00;;
64641;SDS011;59936;51.490;5.436;2023-08-07T13:12:19;5.80;;;3.00;;
64641;SDS011;59936;51.490;5.436;2023-08-07T13:14:47;5.20;;;2.80;;
64641;SDS011;59936;51.490;5.436;2023-08-07T13:17:16;7.60;;;2.30;;
64641;SDS011;59936;51.490;5.436;2023-08-07T13:19:45;5.70;;;2.80;;
64641;SDS011;59936;51.490;5.436;2023-08-07T13:22:13;3.70;;;1.90;;
64641;SDS011;59936;51.490;5.436;2023-08-07T13:24:42;6.10;;;2.30;;
64641;SDS011;59936;51.490;5.436;2023-08-07T13:27:10;2.90;;;2.20;;
64641;SDS011;59936;51.490;5.436;2023-08-07T13:29:39;7.50;;;2.40;;
64641;SDS011;59936;51.490;5.436;2023-08-07T13:32:08;2.30;;;2.10;;
64641;SDS011;59936;51.490;5.436;2023-08-07T13:34:36;3.85;;;2.85;;
64641;SDS011;59936;51.490;5.436;2023-08-07T13:37:05;5.00;;;2.40;;
64641;SDS011;59936;51.490;5.436;2023-08-07T13:39:34;5.90;;;2.50;;
64641;SDS011;59936;51.490;5.436;2023-08-07T13:42:02;3.80;;;2.40;;
64641;SDS011;59936;51.490;5.436;2023-08-07T13:44:31;2.50;;;2.00;;
64641;SDS011;59936;51.490;5.436;2023-08-07T13:47:00;3.10;;;1.90;;
64641;SDS011;59936;51.490;5.436;2023-08-07T13:49:28;3.10;;;2.20;;
64641;SDS011;59936;51.490;5.436;2023-08-07T13:51:57;4.30;;;1.90;;
64641;SDS011;59936;51.490;5.436;2023-08-07T13:54:26;2.20;;;2.00;;
64641;SDS011;59936;51.490;5.436;2023-08-07T13:56:55;2.10;;;2.00;;
64641;SDS011;59936;51.490;5.436;2023-08-07T13:59:23;3.10;;;2.30;;
64641;SDS011;59936;51.490;5.436;2023-08-07T14:01:52;2.20;;;2.10;;
64641;SDS011;59936;51.490;5.436;2023-08-07T14:04:20;4.50;;;2.40;;
64641;SDS011;59936;51.490;5.436;2023-08-07T14:06:49;7.50;;;2.50;;
64641;SDS011;59936;51.490;5.436;2023-08-07T14:09:18;2.95;;;1.90;;
64641;SDS011;59936;51.490;5.436;2023-08-07T14:11:46;3.40;;;2.40;;
64641;SDS011;59936;51.490;5.436;2023-08-07T14:14:15;3.10;;;2.30;;
64641;SDS011;59936;51.490;5.436;2023-08-07T14:16:43;3.30;;;2.20;;
64641;SDS011;59936;51.490;5.436;2023-08-07T14:19:16;7.00;;;2.50;;
64641;SDS011;59936;51.490;5.436;2023-08-07T14:21:44;3.10;;;2.40;;
64641;SDS011;59936;51.490;5.436;2023-08-07T14:24:13;4.90;;;2.30;;
64641;SDS011;59936;51.490;5.436;2023-08-07T14:26:41;4.90;;;2.40;;
64641;SDS011;59936;51.490;5.436;2023-08-07T14:29:10;3.70;;;2.60;;
64641;SDS011;59936;51.490;5.436;2023-08-07T14:31:39;3.80;;;2.40;;
64641;SDS011;59936;51.490;5.436;2023-08-07T14:34:07;3.20;;;2.30;;
64641;SDS011;59936;51.490;5.436;2023-08-07T14:36:36;5.90;;;2.20;;
64641;SDS011;59936;51.490;5.436;2023-08-07T14:39:04;4.00;;;2.30;;
64641;SDS011;59936;51.490;5.436;2023-08-07T14:41:33;4.70;;;2.30;;
64641;SDS011;59936;51.490;5.436;2023-08-07T14:44:02;2.80;;;2.50;;
64641;SDS011;59936;51.490;5.436;2023-08-07T14:46:30;3.20;;;2.30;;
64641;SDS011;59936;51.490;5.436;2023-08-07T14:48:59;3.95;;;2.15;;
64641;SDS011;59936;51.490;5.436;2023-08-07T14:51:27;2.80;;;2.40;;
64641;SDS011;59936;51.490;5.436;2023-08-07T14:53:56;3.10;;;2.30;;
64641;SDS011;59936;51.490;5.436;2023-08-07T14:56:25;1.00;;;1.00;;
64641;SDS011;59936;51.490;5.436;2023-08-07T14:58:54;3.00;;;2.10;;
64641;SDS011;59936;51.490;5.436;2023-08-07T15:01:22;4.30;;;2.40;;
64641;SDS011;59936;51.490;5.436;2023-08-07T15:03:51;3.90;;;1.60;;